Ulen, Minnesota
Current Conditions -  °F | °C
As of 7:55 PM on Monday 24 Nov 2014 (Local Time) from K3N8 Reporting Station
Clear Clear  
Wind Chill: -6°   Ceiling: Unl
Heat Index:   Visibility: 10mi
Dew Point:   Wind: 10mph
Humidity: 87%   Direction: 320°NW
Pressure: 29.93"   Gusts: NA
Location:  47.08°N, 96.26°W
Report Text: K3N8 250155Z AUTO 32009KT 10SM CLR M13/M15 A2993 RMK AO2 T11301147
Loading
Personal Weather Stations






























Interactive Weather Map New forecast layout! Learn more

10-Day Weather Forecast

Advertisements
Track Severe Weather on mobile